sensor_id;sensor_type;location;lat;lon;timestamp;P1;durP1;ratioP1;P2;durP2;ratioP2
72924;SDS011;61070;50.794;7.054;2023-03-31T00:00:27;7.75;;;1.00;;
72924;SDS011;61070;50.794;7.054;2023-03-31T00:02:52;6.53;;;1.20;;
72924;SDS011;61070;50.794;7.054;2023-03-31T00:05:20;4.68;;;1.08;;
72924;SDS011;61070;50.794;7.054;2023-03-31T00:07:52;4.68;;;1.00;;
72924;SDS011;61070;50.794;7.054;2023-03-31T00:10:28;6.45;;;1.00;;
72924;SDS011;61070;50.794;7.054;2023-03-31T00:12:57;7.05;;;1.05;;
72924;SDS011;61070;50.794;7.054;2023-03-31T00:15:22;3.80;;;1.05;;
72924;SDS011;61070;50.794;7.054;2023-03-31T00:17:48;7.72;;;1.02;;
72924;SDS011;61070;50.794;7.054;2023-03-31T00:20:13;5.18;;;0.82;;
72924;SDS011;61070;50.794;7.054;2023-03-31T00:22:38;2.92;;;1.23;;
72924;SDS011;61070;50.794;7.054;2023-03-31T00:25:06;6.30;;;1.17;;
72924;SDS011;61070;50.794;7.054;2023-03-31T00:27:35;7.57;;;1.25;;
72924;SDS011;61070;50.794;7.054;2023-03-31T00:30:00;4.93;;;1.10;;
72924;SDS011;61070;50.794;7.054;2023-03-31T00:32:26;9.65;;;1.20;;
72924;SDS011;61070;50.794;7.054;2023-03-31T00:34:51;7.78;;;1.10;;
72924;SDS011;61070;50.794;7.054;2023-03-31T00:37:16;4.32;;;1.30;;
72924;SDS011;61070;50.794;7.054;2023-03-31T00:39:42;8.85;;;1.27;;
72924;SDS011;61070;50.794;7.054;2023-03-31T00:42:09;8.43;;;1.05;;
72924;SDS011;61070;50.794;7.054;2023-03-31T00:45:17;4.55;;;1.00;;
72924;SDS011;61070;50.794;7.054;2023-03-31T00:47:50;2.67;;;0.90;;
72924;SDS011;61070;50.794;7.054;2023-03-31T00:50:23;2.58;;;0.80;;
72924;SDS011;61070;50.794;7.054;2023-03-31T00:53:10;6.32;;;1.10;;
72924;SDS011;61070;50.794;7.054;2023-03-31T00:55:42;5.35;;;0.80;;
72924;SDS011;61070;50.794;7.054;2023-03-31T00:58:11;6.18;;;1.05;;
72924;SDS011;61070;50.794;7.054;2023-03-31T01:00:39;4.38;;;0.98;;
72924;SDS011;61070;50.794;7.054;2023-03-31T01:03:06;4.35;;;1.73;;
72924;SDS011;61070;50.794;7.054;2023-03-31T01:08:09;3.58;;;1.00;;
72924;SDS011;61070;50.794;7.054;2023-03-31T01:10:37;3.22;;;1.02;;
72924;SDS011;61070;50.794;7.054;2023-03-31T01:13:06;2.58;;;1.10;;
72924;SDS011;61070;50.794;7.054;2023-03-31T01:15:35;4.40;;;0.95;;
72924;SDS011;61070;50.794;7.054;2023-03-31T01:18:01;5.35;;;0.80;;
72924;SDS011;61070;50.794;7.054;2023-03-31T01:35:12;6.00;;;1.10;;
72924;SDS011;61070;50.794;7.054;2023-03-31T01:37:55;6.60;;;1.35;;
72924;SDS011;61070;50.794;7.054;2023-03-31T01:59:17;13.50;;;1.60;;
72924;SDS011;61070;50.794;7.054;2023-03-31T02:01:51;10.60;;;1.52;;
72924;SDS011;61070;50.794;7.054;2023-03-31T02:04:22;12.23;;;1.85;;
72924;SDS011;61070;50.794;7.054;2023-03-31T02:06:57;13.73;;;2.33;;
72924;SDS011;61070;50.794;7.054;2023-03-31T02:09:29;12.38;;;2.08;;
72924;SDS011;61070;50.794;7.054;2023-03-31T02:11:58;8.20;;;1.73;;
72924;SDS011;61070;50.794;7.054;2023-03-31T02:14:25;13.52;;;1.85;;
72924;SDS011;61070;50.794;7.054;2023-03-31T02:16:56;12.10;;;1.95;;
72924;SDS011;61070;50.794;7.054;2023-03-31T02:19:24;14.60;;;2.20;;
72924;SDS011;61070;50.794;7.054;2023-03-31T02:21:53;15.43;;;2.10;;
72924;SDS011;61070;50.794;7.054;2023-03-31T02:24:20;12.10;;;1.67;;
72924;SDS011;61070;50.794;7.054;2023-03-31T02:26:59;7.68;;;1.38;;
72924;SDS011;61070;50.794;7.054;2023-03-31T02:29:31;8.43;;;1.90;;
72924;SDS011;61070;50.794;7.054;2023-03-31T02:34:45;10.38;;;2.20;;
72924;SDS011;61070;50.794;7.054;2023-03-31T02:37:10;8.30;;;1.73;;
72924;SDS011;61070;50.794;7.054;2023-03-31T02:39:37;13.50;;;1.83;;
72924;SDS011;61070;50.794;7.054;2023-03-31T02:42:05;16.80;;;2.00;;
72924;SDS011;61070;50.794;7.054;2023-03-31T02:44:34;13.95;;;2.50;;
72924;SDS011;61070;50.794;7.054;2023-03-31T02:47:01;8.90;;;2.20;;
72924;SDS011;61070;50.794;7.054;2023-03-31T02:49:29;9.30;;;1.42;;
72924;SDS011;61070;50.794;7.054;2023-03-31T02:52:15;10.30;;;1.80;;
72924;SDS011;61070;50.794;7.054;2023-03-31T03:14:42;6.38;;;1.77;;
72924;SDS011;61070;50.794;7.054;2023-03-31T03:17:14;13.82;;;1.95;;
72924;SDS011;61070;50.794;7.054;2023-03-31T03:19:51;13.77;;;2.10;;
72924;SDS011;61070;50.794;7.054;2023-03-31T03:22:18;10.15;;;1.92;;
72924;SDS011;61070;50.794;7.054;2023-03-31T03:24:44;12.38;;;1.83;;
72924;SDS011;61070;50.794;7.054;2023-03-31T03:27:10;7.25;;;1.65;;
72924;SDS011;61070;50.794;7.054;2023-03-31T03:29:35;7.53;;;1.92;;
72924;SDS011;61070;50.794;7.054;2023-03-31T03:32:00;13.60;;;1.92;;
72924;SDS011;61070;50.794;7.054;2023-03-31T03:34:26;11.68;;;1.85;;
72924;SDS011;61070;50.794;7.054;2023-03-31T03:36:51;8.00;;;2.10;;
72924;SDS011;61070;50.794;7.054;2023-03-31T03:39:16;9.43;;;1.90;;
72924;SDS011;61070;50.794;7.054;2023-03-31T03:41:41;9.70;;;1.80;;
72924;SDS011;61070;50.794;7.054;2023-03-31T03:44:07;14.43;;;1.90;;
72924;SDS011;61070;50.794;7.054;2023-03-31T03:46:32;10.30;;;1.80;;
72924;SDS011;61070;50.794;7.054;2023-03-31T03:48:57;13.80;;;2.08;;
72924;SDS011;61070;50.794;7.054;2023-03-31T03:51:22;9.10;;;1.70;;
72924;SDS011;61070;50.794;7.054;2023-03-31T03:53:48;6.47;;;1.30;;
72924;SDS011;61070;50.794;7.054;2023-03-31T03:56:13;8.60;;;1.60;;
72924;SDS011;61070;50.794;7.054;2023-03-31T03:58:38;8.10;;;1.85;;
72924;SDS011;61070;50.794;7.054;2023-03-31T04:01:04;11.40;;;3.20;;
72924;SDS011;61070;50.794;7.054;2023-03-31T04:03:29;11.70;;;2.05;;
72924;SDS011;61070;50.794;7.054;2023-03-31T04:05:55;8.82;;;1.52;;
72924;SDS011;61070;50.794;7.054;2023-03-31T04:08:20;8.50;;;1.80;;
72924;SDS011;61070;50.794;7.054;2023-03-31T04:10:46;6.95;;;1.88;;
72924;SDS011;61070;50.794;7.054;2023-03-31T04:13:13;8.93;;;1.65;;
72924;SDS011;61070;50.794;7.054;2023-03-31T04:15:39;8.23;;;1.95;;
72924;SDS011;61070;50.794;7.054;2023-03-31T04:18:05;9.63;;;1.67;;
72924;SDS011;61070;50.794;7.054;2023-03-31T04:20:30;6.78;;;1.20;;
72924;SDS011;61070;50.794;7.054;2023-03-31T04:22:56;8.50;;;1.75;;
72924;SDS011;61070;50.794;7.054;2023-03-31T04:25:21;6.00;;;1.63;;
72924;SDS011;61070;50.794;7.054;2023-03-31T04:27:48;3.15;;;1.23;;
72924;SDS011;61070;50.794;7.054;2023-03-31T04:30:18;5.13;;;1.17;;
72924;SDS011;61070;50.794;7.054;2023-03-31T04:32:48;8.35;;;1.40;;
72924;SDS011;61070;50.794;7.054;2023-03-31T04:35:19;3.95;;;1.13;;
72924;SDS011;61070;50.794;7.054;2023-03-31T04:37:49;8.02;;;1.15;;
72924;SDS011;61070;50.794;7.054;2023-03-31T04:40:16;4.20;;;1.30;;
72924;SDS011;61070;50.794;7.054;2023-03-31T04:42:43;4.30;;;1.40;;
72924;SDS011;61070;50.794;7.054;2023-03-31T04:45:09;9.40;;;1.15;;
72924;SDS011;61070;50.794;7.054;2023-03-31T04:47:36;4.95;;;1.50;;
72924;SDS011;61070;50.794;7.054;2023-03-31T04:50:02;6.28;;;1.27;;
72924;SDS011;61070;50.794;7.054;2023-03-31T04:52:27;5.72;;;1.15;;
72924;SDS011;61070;50.794;7.054;2023-03-31T04:54:52;8.35;;;1.40;;
72924;SDS011;61070;50.794;7.054;2023-03-31T04:57:18;6.90;;;1.70;;
72924;SDS011;61070;50.794;7.054;2023-03-31T04:59:43;5.38;;;1.35;;
72924;SDS011;61070;50.794;7.054;2023-03-31T05:02:09;11.80;;;1.60;;
72924;SDS011;61070;50.794;7.054;2023-03-31T05:04:35;7.80;;;1.17;;
72924;SDS011;61070;50.794;7.054;2023-03-31T05:07:01;8.55;;;1.30;;
72924;SDS011;61070;50.794;7.054;2023-03-31T05:09:27;3.25;;;0.90;;
72924;SDS011;61070;50.794;7.054;2023-03-31T05:11:52;4.10;;;1.10;;
72924;SDS011;61070;50.794;7.054;2023-03-31T05:14:17;9.27;;;1.73;;
72924;SDS011;61070;50.794;7.054;2023-03-31T05:16:43;4.93;;;1.02;;
72924;SDS011;61070;50.794;7.054;2023-03-31T05:19:08;5.90;;;1.50;;
72924;SDS011;61070;50.794;7.054;2023-03-31T05:21:33;2.33;;;0.90;;
72924;SDS011;61070;50.794;7.054;2023-03-31T05:23:59;8.38;;;1.30;;
72924;SDS011;61070;50.794;7.054;2023-03-31T05:26:24;13.60;;;1.67;;
72924;SDS011;61070;50.794;7.054;2023-03-31T05:28:50;4.63;;;0.90;;
72924;SDS011;61070;50.794;7.054;2023-03-31T05:31:16;6.45;;;1.42;;
72924;SDS011;61070;50.794;7.054;2023-03-31T05:33:42;4.60;;;1.08;;
72924;SDS011;61070;50.794;7.054;2023-03-31T05:36:11;6.03;;;1.15;;
72924;SDS011;61070;50.794;7.054;2023-03-31T05:38:38;4.38;;;1.00;;
72924;SDS011;61070;50.794;7.054;2023-03-31T05:41:04;4.22;;;0.85;;
72924;SDS011;61070;50.794;7.054;2023-03-31T05:43:31;5.63;;;0.90;;
72924;SDS011;61070;50.794;7.054;2023-03-31T05:45:56;5.65;;;1.40;;
72924;SDS011;61070;50.794;7.054;2023-03-31T05:48:21;4.75;;;1.08;;
72924;SDS011;61070;50.794;7.054;2023-03-31T05:50:47;3.72;;;1.10;;
72924;SDS011;61070;50.794;7.054;2023-03-31T05:53:12;3.60;;;0.90;;
72924;SDS011;61070;50.794;7.054;2023-03-31T05:55:38;1.70;;;0.60;;
72924;SDS011;61070;50.794;7.054;2023-03-31T05:58:03;2.47;;;0.32;;
72924;SDS011;61070;50.794;7.054;2023-03-31T06:00:29;1.25;;;0.52;;
72924;SDS011;61070;50.794;7.054;2023-03-31T06:02:55;1.02;;;0.40;;
72924;SDS011;61070;50.794;7.054;2023-03-31T06:05:21;3.03;;;0.55;;
72924;SDS011;61070;50.794;7.054;2023-03-31T06:07:50;2.95;;;0.50;;
72924;SDS011;61070;50.794;7.054;2023-03-31T06:10:15;3.08;;;0.60;;
72924;SDS011;61070;50.794;7.054;2023-03-31T06:12:41;1.92;;;0.40;;
72924;SDS011;61070;50.794;7.054;2023-03-31T06:15:06;2.92;;;0.50;;
72924;SDS011;61070;50.794;7.054;2023-03-31T06:17:32;0.80;;;0.70;;
72924;SDS011;61070;50.794;7.054;2023-03-31T06:19:57;1.92;;;0.40;;
72924;SDS011;61070;50.794;7.054;2023-03-31T06:22:22;1.38;;;0.47;;
72924;SDS011;61070;50.794;7.054;2023-03-31T06:24:48;6.22;;;0.50;;
72924;SDS011;61070;50.794;7.054;2023-03-31T06:27:13;2.35;;;0.32;;
72924;SDS011;61070;50.794;7.054;2023-03-31T06:29:40;0.63;;;0.25;;
72924;SDS011;61070;50.794;7.054;2023-03-31T06:32:05;1.55;;;0.50;;
72924;SDS011;61070;50.794;7.054;2023-03-31T06:34:30;3.17;;;0.80;;
72924;SDS011;61070;50.794;7.054;2023-03-31T06:36:55;1.23;;;0.55;;
72924;SDS011;61070;50.794;7.054;2023-03-31T06:39:21;2.35;;;0.45;;
72924;SDS011;61070;50.794;7.054;2023-03-31T06:41:46;1.23;;;0.40;;
72924;SDS011;61070;50.794;7.054;2023-03-31T06:44:11;1.17;;;0.60;;
72924;SDS011;61070;50.794;7.054;2023-03-31T06:46:36;0.35;;;0.20;;
72924;SDS011;61070;50.794;7.054;2023-03-31T06:49:02;1.35;;;0.45;;
72924;SDS011;61070;50.794;7.054;2023-03-31T06:51:27;5.22;;;0.60;;
72924;SDS011;61070;50.794;7.054;2023-03-31T06:53:52;5.50;;;0.57;;
72924;SDS011;61070;50.794;7.054;2023-03-31T06:56:18;1.38;;;0.45;;
72924;SDS011;61070;50.794;7.054;2023-03-31T06:58:43;1.98;;;0.60;;
72924;SDS011;61070;50.794;7.054;2023-03-31T07:01:08;1.17;;;0.60;;
72924;SDS011;61070;50.794;7.054;2023-03-31T07:03:35;2.78;;;0.57;;
72924;SDS011;61070;50.794;7.054;2023-03-31T07:06:00;1.52;;;0.60;;
72924;SDS011;61070;50.794;7.054;2023-03-31T07:08:26;2.45;;;0.30;;
72924;SDS011;61070;50.794;7.054;2023-03-31T07:10:55;4.20;;;0.30;;
72924;SDS011;61070;50.794;7.054;2023-03-31T07:13:22;4.85;;;0.70;;
72924;SDS011;61070;50.794;7.054;2023-03-31T07:15:49;1.88;;;0.68;;
72924;SDS011;61070;50.794;7.054;2023-03-31T07:18:15;3.40;;;0.50;;
72924;SDS011;61070;50.794;7.054;2023-03-31T07:20:41;0.82;;;0.40;;
72924;SDS011;61070;50.794;7.054;2023-03-31T07:23:07;1.63;;;0.50;;
72924;SDS011;61070;50.794;7.054;2023-03-31T07:25:33;1.95;;;0.40;;
72924;SDS011;61070;50.794;7.054;2023-03-31T07:27:59;1.15;;;0.60;;
72924;SDS011;61070;50.794;7.054;2023-03-31T07:30:25;2.00;;;0.50;;
72924;SDS011;61070;50.794;7.054;2023-03-31T07:32:51;0.55;;;0.40;;
72924;SDS011;61070;50.794;7.054;2023-03-31T07:35:17;2.20;;;0.60;;
72924;SDS011;61070;50.794;7.054;2023-03-31T07:37:44;1.13;;;0.47;;
72924;SDS011;61070;50.794;7.054;2023-03-31T07:40:12;1.30;;;0.50;;
72924;SDS011;61070;50.794;7.054;2023-03-31T07:42:40;1.17;;;0.40;;
72924;SDS011;61070;50.794;7.054;2023-03-31T07:45:06;1.10;;;0.50;;
72924;SDS011;61070;50.794;7.054;2023-03-31T07:47:33;2.72;;;0.50;;
72924;SDS011;61070;50.794;7.054;2023-03-31T07:49:59;2.15;;;0.73;;
72924;SDS011;61070;50.794;7.054;2023-03-31T07:52:24;2.88;;;0.80;;
72924;SDS011;61070;50.794;7.054;2023-03-31T07:54:50;1.08;;;0.40;;
72924;SDS011;61070;50.794;7.054;2023-03-31T07:57:15;1.23;;;0.32;;
72924;SDS011;61070;50.794;7.054;2023-03-31T07:59:41;3.67;;;0.45;;
72924;SDS011;61070;50.794;7.054;2023-03-31T08:02:09;1.90;;;0.50;;
72924;SDS011;61070;50.794;7.054;2023-03-31T08:04:39;1.15;;;0.45;;
72924;SDS011;61070;50.794;7.054;2023-03-31T08:07:08;3.72;;;0.80;;
72924;SDS011;61070;50.794;7.054;2023-03-31T08:09:37;2.47;;;0.85;;
72924;SDS011;61070;50.794;7.054;2023-03-31T08:12:03;5.32;;;0.93;;
72924;SDS011;61070;50.794;7.054;2023-03-31T08:14:28;4.75;;;0.85;;
72924;SDS011;61070;50.794;7.054;2023-03-31T08:16:53;2.90;;;1.25;;
72924;SDS011;61070;50.794;7.054;2023-03-31T08:19:19;3.15;;;0.80;;
72924;SDS011;61070;50.794;7.054;2023-03-31T08:21:46;4.95;;;0.85;;
72924;SDS011;61070;50.794;7.054;2023-03-31T08:24:11;4.22;;;0.82;;
72924;SDS011;61070;50.794;7.054;2023-03-31T08:26:36;3.70;;;0.88;;
72924;SDS011;61070;50.794;7.054;2023-03-31T08:29:02;6.43;;;1.13;;
72924;SDS011;61070;50.794;7.054;2023-03-31T08:31:28;8.02;;;1.13;;
72924;SDS011;61070;50.794;7.054;2023-03-31T08:33:54;4.80;;;0.95;;
72924;SDS011;61070;50.794;7.054;2023-03-31T08:36:20;7.35;;;1.23;;
72924;SDS011;61070;50.794;7.054;2023-03-31T08:38:45;4.97;;;0.82;;
72924;SDS011;61070;50.794;7.054;2023-03-31T08:44:10;3.50;;;1.17;;
72924;SDS011;61070;50.794;7.054;2023-03-31T08:46:44;4.03;;;1.40;;
72924;SDS011;61070;50.794;7.054;2023-03-31T08:49:13;8.48;;;1.42;;
72924;SDS011;61070;50.794;7.054;2023-03-31T08:51:49;7.70;;;1.50;;
72924;SDS011;61070;50.794;7.054;2023-03-31T08:54:39;6.20;;;1.10;;
72924;SDS011;61070;50.794;7.054;2023-03-31T08:57:18;8.50;;;1.60;;
72924;SDS011;61070;50.794;7.054;2023-03-31T08:59:49;8.73;;;1.83;;
72924;SDS011;61070;50.794;7.054;2023-03-31T09:02:50;9.30;;;1.27;;
72924;SDS011;61070;50.794;7.054;2023-03-31T09:08:06;8.35;;;1.70;;
72924;SDS011;61070;50.794;7.054;2023-03-31T09:10:40;11.13;;;2.33;;
72924;SDS011;61070;50.794;7.054;2023-03-31T09:16:01;11.77;;;2.35;;
72924;SDS011;61070;50.794;7.054;2023-03-31T09:18:37;11.50;;;2.53;;
72924;SDS011;61070;50.794;7.054;2023-03-31T09:23:55;17.67;;;3.67;;
72924;SDS011;61070;50.794;7.054;2023-03-31T09:26:34;9.88;;;3.00;;
72924;SDS011;61070;50.794;7.054;2023-03-31T09:29:04;8.73;;;2.05;;
72924;SDS011;61070;50.794;7.054;2023-03-31T09:31:36;13.32;;;3.70;;
72924;SDS011;61070;50.794;7.054;2023-03-31T09:34:07;12.70;;;3.30;;
72924;SDS011;61070;50.794;7.054;2023-03-31T09:36:38;14.38;;;3.45;;
72924;SDS011;61070;50.794;7.054;2023-03-31T09:39:04;11.40;;;3.15;;
72924;SDS011;61070;50.794;7.054;2023-03-31T09:41:30;9.27;;;2.33;;
72924;SDS011;61070;50.794;7.054;2023-03-31T09:43:55;11.43;;;2.50;;
72924;SDS011;61070;50.794;7.054;2023-03-31T09:46:32;13.00;;;2.50;;
72924;SDS011;61070;50.794;7.054;2023-03-31T09:49:09;8.30;;;1.40;;
72924;SDS011;61070;50.794;7.054;2023-03-31T09:51:39;9.50;;;1.90;;
72924;SDS011;61070;50.794;7.054;2023-03-31T09:56:55;14.48;;;2.20;;
72924;SDS011;61070;50.794;7.054;2023-03-31T09:59:22;11.05;;;2.40;;
72924;SDS011;61070;50.794;7.054;2023-03-31T10:01:56;9.70;;;1.88;;
72924;SDS011;61070;50.794;7.054;2023-03-31T10:04:25;11.45;;;2.00;;
72924;SDS011;61070;50.794;7.054;2023-03-31T10:06:53;7.00;;;1.83;;
72924;SDS011;61070;50.794;7.054;2023-03-31T10:09:20;10.85;;;2.53;;
72924;SDS011;61070;50.794;7.054;2023-03-31T10:11:52;13.45;;;1.70;;
72924;SDS011;61070;50.794;7.054;2023-03-31T10:14:23;11.90;;;2.13;;
72924;SDS011;61070;50.794;7.054;2023-03-31T10:16:57;9.55;;;2.28;;
72924;SDS011;61070;50.794;7.054;2023-03-31T10:19:27;16.05;;;3.13;;
72924;SDS011;61070;50.794;7.054;2023-03-31T10:21:56;8.98;;;2.10;;
72924;SDS011;61070;50.794;7.054;2023-03-31T10:24:43;10.52;;;2.58;;
72924;SDS011;61070;50.794;7.054;2023-03-31T10:32:29;12.70;;;2.10;;
72924;SDS011;61070;50.794;7.054;2023-03-31T10:34:56;6.32;;;1.80;;
72924;SDS011;61070;50.794;7.054;2023-03-31T10:37:27;8.70;;;1.70;;
72924;SDS011;61070;50.794;7.054;2023-03-31T10:40:13;7.50;;;1.50;;
72924;SDS011;61070;50.794;7.054;2023-03-31T10:42:43;7.83;;;1.90;;
72924;SDS011;61070;50.794;7.054;2023-03-31T10:47:47;5.03;;;1.40;;
72924;SDS011;61070;50.794;7.054;2023-03-31T10:50:14;7.90;;;1.45;;
72924;SDS011;61070;50.794;7.054;2023-03-31T10:52:44;6.28;;;0.90;;
72924;SDS011;61070;50.794;7.054;2023-03-31T10:55:12;11.88;;;2.20;;
72924;SDS011;61070;50.794;7.054;2023-03-31T10:57:48;2.15;;;1.00;;
72924;SDS011;61070;50.794;7.054;2023-03-31T11:00:28;8.52;;;1.00;;
72924;SDS011;61070;50.794;7.054;2023-03-31T11:03:19;8.23;;;1.83;;
72924;SDS011;61070;50.794;7.054;2023-03-31T11:11:02;7.65;;;1.42;;
72924;SDS011;61070;50.794;7.054;2023-03-31T11:21:54;4.13;;;0.68;;
72924;SDS011;61070;50.794;7.054;2023-03-31T11:30:21;3.30;;;1.20;;
72924;SDS011;61070;50.794;7.054;2023-03-31T11:38:17;7.38;;;1.10;;
72924;SDS011;61070;50.794;7.054;2023-03-31T11:41:07;3.90;;;0.80;;
72924;SDS011;61070;50.794;7.054;2023-03-31T11:46:31;8.77;;;1.00;;
72924;SDS011;61070;50.794;7.054;2023-03-31T11:49:05;6.63;;;1.30;;
72924;SDS011;61070;50.794;7.054;2023-03-31T11:51:43;8.00;;;1.27;;
72924;SDS011;61070;50.794;7.054;2023-03-31T11:54:19;7.53;;;1.50;;
72924;SDS011;61070;50.794;7.054;2023-03-31T11:56:51;6.90;;;1.40;;
72924;SDS011;61070;50.794;7.054;2023-03-31T11:59:17;6.53;;;1.33;;
72924;SDS011;61070;50.794;7.054;2023-03-31T12:01:51;8.85;;;1.65;;
72924;SDS011;61070;50.794;7.054;2023-03-31T12:04:38;5.57;;;1.58;;
72924;SDS011;61070;50.794;7.054;2023-03-31T12:09:37;9.13;;;2.30;;
72924;SDS011;61070;50.794;7.054;2023-03-31T12:12:17;11.43;;;1.90;;
72924;SDS011;61070;50.794;7.054;2023-03-31T12:14:54;5.05;;;1.20;;
72924;SDS011;61070;50.794;7.054;2023-03-31T12:17:28;2.95;;;0.75;;
72924;SDS011;61070;50.794;7.054;2023-03-31T12:19:54;4.65;;;0.95;;
72924;SDS011;61070;50.794;7.054;2023-03-31T12:24:54;4.88;;;0.80;;
72924;SDS011;61070;50.794;7.054;2023-03-31T12:30:03;2.55;;;0.80;;
72924;SDS011;61070;50.794;7.054;2023-03-31T12:32:32;4.10;;;1.00;;
72924;SDS011;61070;50.794;7.054;2023-03-31T12:37:59;6.72;;;0.88;;
72924;SDS011;61070;50.794;7.054;2023-03-31T12:51:54;4.05;;;0.98;;
72924;SDS011;61070;50.794;7.054;2023-03-31T12:57:29;5.03;;;1.10;;
72924;SDS011;61070;50.794;7.054;2023-03-31T13:02:36;6.68;;;1.95;;
72924;SDS011;61070;50.794;7.054;2023-03-31T13:08:10;10.05;;;1.27;;
72924;SDS011;61070;50.794;7.054;2023-03-31T13:11:06;5.88;;;1.70;;
72924;SDS011;61070;50.794;7.054;2023-03-31T13:13:31;7.90;;;1.63;;
72924;SDS011;61070;50.794;7.054;2023-03-31T13:15:56;14.57;;;2.85;;
72924;SDS011;61070;50.794;7.054;2023-03-31T13:18:25;15.07;;;2.38;;
72924;SDS011;61070;50.794;7.054;2023-03-31T13:20:58;10.13;;;2.08;;
72924;SDS011;61070;50.794;7.054;2023-03-31T13:23:25;15.30;;;2.13;;
72924;SDS011;61070;50.794;7.054;2023-03-31T13:25:55;11.98;;;2.67;;
72924;SDS011;61070;50.794;7.054;2023-03-31T13:30:49;11.13;;;2.10;;
72924;SDS011;61070;50.794;7.054;2023-03-31T13:33:26;13.77;;;2.30;;
72924;SDS011;61070;50.794;7.054;2023-03-31T13:35:55;8.18;;;1.95;;
72924;SDS011;61070;50.794;7.054;2023-03-31T13:40:54;13.75;;;2.42;;
72924;SDS011;61070;50.794;7.054;2023-03-31T13:49:48;10.77;;;2.13;;
72924;SDS011;61070;50.794;7.054;2023-03-31T13:52:42;7.65;;;1.88;;
72924;SDS011;61070;50.794;7.054;2023-03-31T13:58:37;5.05;;;1.17;;
72924;SDS011;61070;50.794;7.054;2023-03-31T14:07:01;4.22;;;1.10;;
72924;SDS011;61070;50.794;7.054;2023-03-31T14:09:33;7.15;;;1.10;;
72924;SDS011;61070;50.794;7.054;2023-03-31T14:12:01;7.13;;;1.20;;
72924;SDS011;61070;50.794;7.054;2023-03-31T14:14:43;4.28;;;0.80;;
72924;SDS011;61070;50.794;7.054;2023-03-31T14:17:08;6.15;;;1.05;;
72924;SDS011;61070;50.794;7.054;2023-03-31T14:39:10;6.28;;;1.42;;
72924;SDS011;61070;50.794;7.054;2023-03-31T14:41:38;9.45;;;1.92;;
72924;SDS011;61070;50.794;7.054;2023-03-31T14:44:05;5.03;;;1.30;;
72924;SDS011;61070;50.794;7.054;2023-03-31T14:46:34;4.15;;;0.73;;
72924;SDS011;61070;50.794;7.054;2023-03-31T14:49:06;7.28;;;1.25;;
72924;SDS011;61070;50.794;7.054;2023-03-31T14:51:52;8.43;;;1.63;;
72924;SDS011;61070;50.794;7.054;2023-03-31T14:54:22;7.00;;;1.00;;
72924;SDS011;61070;50.794;7.054;2023-03-31T14:56:52;3.55;;;1.15;;
72924;SDS011;61070;50.794;7.054;2023-03-31T14:59:26;8.43;;;1.10;;
72924;SDS011;61070;50.794;7.054;2023-03-31T15:01:57;5.53;;;0.95;;
72924;SDS011;61070;50.794;7.054;2023-03-31T15:04:25;4.57;;;0.82;;
72924;SDS011;61070;50.794;7.054;2023-03-31T15:06:53;7.43;;;1.20;;
72924;SDS011;61070;50.794;7.054;2023-03-31T15:09:20;9.18;;;1.58;;
72924;SDS011;61070;50.794;7.054;2023-03-31T15:11:52;5.05;;;1.50;;
72924;SDS011;61070;50.794;7.054;2023-03-31T15:14:21;3.13;;;1.10;;
72924;SDS011;61070;50.794;7.054;2023-03-31T15:16:48;3.35;;;1.13;;
72924;SDS011;61070;50.794;7.054;2023-03-31T15:21:44;6.67;;;1.43;;
72924;SDS011;61070;50.794;7.054;2023-03-31T15:24:11;6.60;;;1.42;;
72924;SDS011;61070;50.794;7.054;2023-03-31T15:26:43;7.05;;;1.50;;
72924;SDS011;61070;50.794;7.054;2023-03-31T15:29:19;6.35;;;1.50;;
72924;SDS011;61070;50.794;7.054;2023-03-31T15:31:54;8.25;;;1.70;;
72924;SDS011;61070;50.794;7.054;2023-03-31T15:34:30;7.07;;;1.10;;
72924;SDS011;61070;50.794;7.054;2023-03-31T15:36:57;3.58;;;0.82;;
72924;SDS011;61070;50.794;7.054;2023-03-31T15:39:25;7.63;;;0.95;;
72924;SDS011;61070;50.794;7.054;2023-03-31T15:41:54;5.78;;;1.30;;
72924;SDS011;61070;50.794;7.054;2023-03-31T15:49:53;6.70;;;1.38;;
72924;SDS011;61070;50.794;7.054;2023-03-31T15:52:34;6.10;;;1.25;;
72924;SDS011;61070;50.794;7.054;2023-03-31T15:55:19;4.00;;;1.20;;
72924;SDS011;61070;50.794;7.054;2023-03-31T15:57:49;5.32;;;1.40;;
72924;SDS011;61070;50.794;7.054;2023-03-31T16:02:55;3.58;;;1.25;;
72924;SDS011;61070;50.794;7.054;2023-03-31T16:08:12;5.32;;;0.98;;
72924;SDS011;61070;50.794;7.054;2023-03-31T16:10:40;8.13;;;1.20;;
72924;SDS011;61070;50.794;7.054;2023-03-31T16:13:06;6.40;;;1.00;;
72924;SDS011;61070;50.794;7.054;2023-03-31T16:15:40;5.00;;;0.85;;
72924;SDS011;61070;50.794;7.054;2023-03-31T16:20:57;3.75;;;1.02;;
72924;SDS011;61070;50.794;7.054;2023-03-31T16:23:27;6.53;;;1.10;;
72924;SDS011;61070;50.794;7.054;2023-03-31T16:25:55;4.25;;;0.85;;
72924;SDS011;61070;50.794;7.054;2023-03-31T16:28:21;5.03;;;0.98;;
72924;SDS011;61070;50.794;7.054;2023-03-31T16:30:49;1.90;;;0.80;;
72924;SDS011;61070;50.794;7.054;2023-03-31T16:33:16;3.55;;;0.90;;
72924;SDS011;61070;50.794;7.054;2023-03-31T16:35:44;2.05;;;0.75;;
72924;SDS011;61070;50.794;7.054;2023-03-31T16:38:15;3.35;;;1.02;;
72924;SDS011;61070;50.794;7.054;2023-03-31T16:40:42;4.70;;;1.00;;
72924;SDS011;61070;50.794;7.054;2023-03-31T16:45:48;2.78;;;0.82;;
72924;SDS011;61070;50.794;7.054;2023-03-31T16:48:16;3.42;;;0.77;;
72924;SDS011;61070;50.794;7.054;2023-03-31T16:50:46;3.33;;;0.80;;
72924;SDS011;61070;50.794;7.054;2023-03-31T16:53:17;2.38;;;1.13;;
72924;SDS011;61070;50.794;7.054;2023-03-31T16:55:46;4.15;;;1.00;;
72924;SDS011;61070;50.794;7.054;2023-03-31T16:58:11;2.75;;;0.93;;
72924;SDS011;61070;50.794;7.054;2023-03-31T17:00:37;4.05;;;0.93;;
72924;SDS011;61070;50.794;7.054;2023-03-31T17:03:04;4.70;;;0.70;;
72924;SDS011;61070;50.794;7.054;2023-03-31T17:05:30;6.68;;;0.90;;
72924;SDS011;61070;50.794;7.054;2023-03-31T17:08:01;3.15;;;0.80;;
72924;SDS011;61070;50.794;7.054;2023-03-31T17:10:26;2.15;;;0.68;;
72924;SDS011;61070;50.794;7.054;2023-03-31T17:12:52;4.60;;;0.80;;
72924;SDS011;61070;50.794;7.054;2023-03-31T17:15:17;2.97;;;1.10;;
72924;SDS011;61070;50.794;7.054;2023-03-31T17:17:42;1.60;;;0.60;;
72924;SDS011;61070;50.794;7.054;2023-03-31T17:20:08;5.63;;;1.25;;
72924;SDS011;61070;50.794;7.054;2023-03-31T17:22:34;2.60;;;0.73;;
72924;SDS011;61070;50.794;7.054;2023-03-31T17:25:00;5.97;;;0.77;;
72924;SDS011;61070;50.794;7.054;2023-03-31T17:27:26;6.20;;;1.20;;
72924;SDS011;61070;50.794;7.054;2023-03-31T17:29:53;6.93;;;0.82;;
72924;SDS011;61070;50.794;7.054;2023-03-31T17:32:20;4.63;;;1.10;;
72924;SDS011;61070;50.794;7.054;2023-03-31T17:34:46;4.85;;;1.15;;
72924;SDS011;61070;50.794;7.054;2023-03-31T17:37:13;6.07;;;1.00;;
72924;SDS011;61070;50.794;7.054;2023-03-31T17:39:39;4.85;;;1.20;;
72924;SDS011;61070;50.794;7.054;2023-03-31T17:42:04;6.60;;;1.10;;
72924;SDS011;61070;50.794;7.054;2023-03-31T17:44:30;11.60;;;1.35;;
72924;SDS011;61070;50.794;7.054;2023-03-31T17:46:55;7.88;;;1.90;;
72924;SDS011;61070;50.794;7.054;2023-03-31T17:49:21;3.80;;;0.95;;
72924;SDS011;61070;50.794;7.054;2023-03-31T17:51:47;8.60;;;1.70;;
72924;SDS011;61070;50.794;7.054;2023-03-31T17:54:12;5.43;;;1.08;;
72924;SDS011;61070;50.794;7.054;2023-03-31T17:56:38;4.18;;;1.08;;
72924;SDS011;61070;50.794;7.054;2023-03-31T17:59:03;0.90;;;0.70;;
72924;SDS011;61070;50.794;7.054;2023-03-31T18:01:29;3.58;;;0.85;;
72924;SDS011;61070;50.794;7.054;2023-03-31T18:03:55;4.28;;;0.70;;
72924;SDS011;61070;50.794;7.054;2023-03-31T18:06:21;4.03;;;1.10;;
72924;SDS011;61070;50.794;7.054;2023-03-31T18:08:46;3.53;;;0.77;;
72924;SDS011;61070;50.794;7.054;2023-03-31T18:11:12;1.73;;;0.70;;
72924;SDS011;61070;50.794;7.054;2023-03-31T18:13:37;6.10;;;0.95;;